Time;durP1;ratioP1;P1;durP2;ratioP2;P2;SDS_P1;SDS_P2;PMS_P1;PMS_P2;Temp;Humidity;BMP_temperature;BMP_pressure;BME280_temperature;BME280_humidity;BME280_pressure;Samples;Min_cycle;Max_cycle;Signal;HPM_P1;HPM_P2
2022/07/26 00:02:20;;;;;;;0.97;0.87;;;;;;;21.76;70.11;99979.63;5092557;28;20445;-52
2022/07/26 00:04:46;;;;;;;0.67;0.60;;;;;;;21.65;70.55;99985.88;5092540;28;20456;-52
2022/07/26 00:07:13;;;;;;;0.80;0.57;;;;;;;21.70;70.62;99990.94;5092566;28;20449;-53
2022/07/26 00:09:39;;;;;;;14.47;1.40;;;;;;;21.74;70.48;99993.28;5092155;28;20480;-52
2022/07/26 00:12:13;;;;;;;1.77;0.83;;;;;;;21.72;70.79;99994.38;5092215;28;20485;-52
2022/07/26 00:14:39;;;;;;;0.63;0.40;;;;;;;21.77;70.37;99994.88;5092041;28;20452;-52
2022/07/26 00:17:06;;;;;;;2.40;1.23;;;;;;;21.41;71.80;99994.09;5080420;28;20449;-52
2022/07/26 00:19:32;;;;;;;0.70;0.60;;;;;;;21.49;71.43;100001.59;5091207;28;20974;-52
2022/07/26 00:24:44;;;;;;;1.00;0.90;;;;;;;21.51;71.93;100014.00;5079967;28;20805;-52
2022/07/26 00:27:10;;;;;;;0.87;0.73;;;;;;;21.63;71.70;100008.63;5091706;28;20449;-52
2022/07/26 00:29:37;;;;;;;2.33;1.00;;;;;;;21.59;71.75;99997.19;5092260;28;20468;-53
2022/07/26 00:32:04;;;;;;;1.43;0.77;;;;;;;21.69;71.44;100009.03;5091853;28;20471;-52
2022/07/26 00:34:30;;;;;;;0.90;0.70;;;;;;;21.74;71.20;100008.66;5091999;28;20449;-52
2022/07/26 00:36:57;;;;;;;0.60;0.50;;;;;;;21.88;70.82;100009.28;5092225;28;20445;-52
2022/07/26 00:39:23;;;;;;;1.70;1.10;;;;;;;22.01;70.68;100019.13;5091922;28;20468;-52
2022/07/26 00:41:50;;;;;;;1.13;0.90;;;;;;;21.93;70.89;100011.63;5092164;28;20449;-52
2022/07/26 00:44:16;;;;;;;1.53;0.70;;;;;;;22.02;70.74;100021.69;5093076;28;20449;-53
2022/07/26 00:46:43;;;;;;;0.80;0.80;;;;;;;21.90;71.38;100022.66;5085512;28;20459;-52
2022/07/26 00:49:11;;;;;;;1.13;1.03;;;;;;;22.06;70.51;100023.19;5091623;28;20471;-52
2022/07/26 00:51:38;;;;;;;9.10;1.33;;;;;;;22.06;70.43;100020.50;5092148;28;20472;-51
2022/07/26 00:54:06;;;;;;;1.10;0.80;;;;;;;22.02;70.93;100027.09;5092161;28;20534;-52
2022/07/26 00:56:33;;;;;;;4.10;0.60;;;;;;;22.01;71.12;100028.09;5091810;28;20938;-52
2022/07/26 00:59:00;;;;;;;2.60;1.03;;;;;;;21.31;73.61;100030.09;5092235;28;20469;-52
2022/07/26 01:01:27;;;;;;;1.13;1.03;;;;;;;20.97;75.13;100044.31;5092162;28;20471;-53
2022/07/26 01:03:53;;;;;;;0.93;0.83;;;;;;;20.90;75.56;100048.44;5091622;28;20445;-52
2022/07/26 01:06:22;;;;;;;1.67;1.10;;;;;;;20.94;75.46;100044.53;5091973;28;20453;-53
2022/07/26 01:08:53;;;;;;;0.90;0.73;;;;;;;21.22;74.04;100046.00;5091805;28;20461;-53
2022/07/26 01:11:19;;;;;;;0.93;0.50;;;;;;;21.24;73.91;100046.75;5091899;28;20511;-52
2022/07/26 01:13:47;;;;;;;1.20;1.00;;;;;;;21.32;73.69;100048.91;5091788;28;20488;-52
2022/07/26 01:16:14;;;;;;;1.40;1.13;;;;;;;21.39;73.60;100046.59;5087158;28;20450;-52
2022/07/26 01:18:40;;;;;;;1.97;1.03;;;;;;;21.33;73.45;100047.06;5083908;28;20496;-53
2022/07/26 01:21:09;;;;;;;1.00;0.70;;;;;;;21.26;73.74;100046.69;5093463;28;20449;-53
2022/07/26 01:23:40;;;;;;;0.87;0.70;;;;;;;21.05;74.45;100043.72;5082949;28;20783;-53
2022/07/26 01:26:07;;;;;;;2.03;1.77;;;;;;;21.08;74.24;100048.03;5094941;28;20459;-52
2022/07/26 01:28:38;;;;;;;0.73;0.60;;;;;;;21.24;73.98;100046.75;5075413;28;20492;-52
2022/07/26 01:31:05;;;;;;;1.03;0.93;;;;;;;21.25;73.77;100047.66;5081983;28;20540;-53
2022/07/26 01:33:33;;;;;;;1.53;0.73;;;;;;;21.28;73.57;100052.81;5095261;28;20493;-51
2022/07/26 01:36:00;;;;;;;1.10;1.00;;;;;;;21.30;73.61;100040.03;5095251;28;20448;-53
2022/07/26 01:38:27;;;;;;;5.90;1.50;;;;;;;21.38;73.44;100040.31;5095261;28;20475;-53
2022/07/26 01:40:53;;;;;;;1.93;0.80;;;;;;;21.46;73.56;100048.69;5095206;28;20816;-53
2022/07/26 01:43:20;;;;;;;2.40;1.70;;;;;;;21.54;72.83;100043.56;5095364;28;20452;-52
2022/07/26 01:45:46;;;;;;;3.77;0.77;;;;;;;21.41;73.42;100040.09;5094074;28;20449;-54
2022/07/26 01:48:13;;;;;;;2.43;1.00;;;;;;;21.51;73.48;100041.06;5088628;28;21009;-52
2022/07/26 01:50:40;;;;;;;1.03;0.93;;;;;;;21.51;73.56;100043.78;5094995;28;20938;-52
2022/07/26 01:53:06;;;;;;;4.90;0.90;;;;;;;21.48;74.03;100040.44;5095143;28;20496;-53
2022/07/26 01:55:34;;;;;;;3.20;1.27;;;;;;;21.63;73.07;100038.38;5095165;28;20441;-53
2022/07/26 01:58:01;;;;;;;1.00;0.90;;;;;;;21.59;73.17;100041.34;5094710;28;20453;-52
2022/07/26 02:00:28;;;;;;;1.10;1.00;;;;;;;21.54;72.71;100027.31;5094900;28;20988;-52
2022/07/26 02:02:54;;;;;;;1.17;1.07;;;;;;;21.66;72.86;100036.31;5093700;28;20449;-53
2022/07/26 02:05:21;;;;;;;1.53;0.70;;;;;;;21.56;73.28;100040.72;5094750;28;20453;-53
2022/07/26 02:07:48;;;;;;;1.20;1.10;;;;;;;21.39;74.23;100042.03;5094198;28;20903;-52
2022/07/26 02:10:16;;;;;;;8.53;1.80;;;;;;;21.12;75.13;100036.03;5094772;28;20802;-54
2022/07/26 02:12:43;;;;;;;1.27;1.00;;;;;;;21.26;74.39;100038.56;5094360;28;20476;-52
2022/07/26 02:15:13;;;;;;;2.60;1.30;;;;;;;21.19;74.03;100042.66;5094660;28;20521;-53
2022/07/26 02:17:40;;;;;;;1.77;0.80;;;;;;;20.95;73.90;100039.97;5093898;28;20453;-52
2022/07/26 02:20:07;;;;;;;1.30;1.13;;;;;;;21.03;74.12;100045.69;5094379;28;20472;-53
2022/07/26 02:22:34;;;;;;;1.00;0.70;;;;;;;21.14;73.38;100047.56;5090654;28;20931;-52
2022/07/26 02:25:01;;;;;;;1.27;1.17;;;;;;;21.18;73.31;100054.47;5084825;28;20445;-53
2022/07/26 02:27:31;;;;;;;2.93;0.80;;;;;;;21.23;72.90;100049.56;5094265;28;20540;-53
2022/07/26 02:29:58;;;;;;;0.97;0.83;;;;;;;21.27;73.14;100053.81;5093896;28;20558;-53
2022/07/26 02:32:24;;;;;;;1.00;0.80;;;;;;;21.22;72.63;100046.00;5094179;28;20447;-52
2022/07/26 02:34:51;;;;;;;1.07;0.97;;;;;;;21.28;72.84;100053.69;5094155;28;20441;-53
2022/07/26 02:37:17;;;;;;;0.90;0.63;;;;;;;21.22;72.91;100051.41;5093916;28;20455;-52
2022/07/26 02:39:44;;;;;;;3.37;1.40;;;;;;;21.14;72.98;100055.69;5094342;28;20552;-53
2022/07/26 02:42:10;;;;;;;0.80;0.70;;;;;;;21.26;72.81;100055.66;5093944;28;20445;-52
2022/07/26 02:44:37;;;;;;;2.70;1.77;;;;;;;21.04;73.43;100063.63;5093855;28;20459;-52
2022/07/26 02:47:03;;;;;;;1.47;0.73;;;;;;;21.00;73.30;100063.00;5087617;28;20818;-52
2022/07/26 02:49:30;;;;;;;1.03;0.93;;;;;;;20.97;73.71;100062.38;5094124;28;20551;-53
2022/07/26 02:51:56;;;;;;;2.87;1.13;;;;;;;21.05;73.64;100068.03;5093775;28;20491;-52
2022/07/26 02:54:23;;;;;;;5.83;1.10;;;;;;;21.32;72.12;100059.72;5094851;28;20848;-53
2022/07/26 02:56:49;;;;;;;5.10;1.30;;;;;;;21.53;71.03;100063.47;5094120;28;20966;-52
2022/07/26 02:59:15;;;;;;;0.80;0.80;;;;;;;21.52;70.97;100067.16;5093575;28;20548;-52
2022/07/26 03:01:42;;;;;;;0.70;0.50;;;;;;;21.53;70.16;100071.59;5093819;28;20445;-53
2022/07/26 03:04:08;;;;;;;0.97;0.80;;;;;;;21.47;70.26;100077.47;5093714;28;20441;-52
2022/07/26 03:06:36;;;;;;;4.53;0.97;;;;;;;21.51;69.99;100072.66;5093412;28;20793;-52
2022/07/26 03:09:03;;;;;;;8.80;1.60;;;;;;;21.51;69.94;100067.25;5093175;28;20818;-51
2022/07/26 03:11:29;;;;;;;9.60;1.63;;;;;;;21.62;68.90;100067.28;5093662;28;20541;-53
2022/07/26 03:13:56;;;;;;;4.73;1.10;;;;;;;21.43;68.91;100067.88;5093573;28;20484;-52
2022/07/26 03:16:23;;;;;;;1.77;0.70;;;;;;;21.44;68.92;100071.44;5087212;28;20446;-52
2022/07/26 03:18:55;;;;;;;0.70;0.60;;;;;;;21.28;68.76;100063.63;5087291;28;20465;-53
2022/07/26 03:21:22;;;;;;;1.33;0.70;;;;;;;21.24;68.98;100073.81;5092863;28;20445;-53
2022/07/26 03:23:48;;;;;;;2.00;0.60;;;;;;;21.33;68.98;100079.50;5079428;28;20446;-52
2022/07/26 03:26:15;;;;;;;1.13;0.57;;;;;;;21.27;68.82;100080.84;5092883;28;20789;-52
2022/07/26 03:28:43;;;;;;;7.13;1.27;;;;;;;21.09;69.20;100080.34;5093155;28;20469;-52
2022/07/26 03:31:11;;;;;;;0.80;0.80;;;;;;;21.07;69.33;100079.59;5093261;28;20460;-52
2022/07/26 03:33:39;;;;;;;0.70;0.50;;;;;;;21.03;69.39;100077.25;5092761;28;20485;-53
2022/07/26 03:36:06;;;;;;;0.60;0.60;;;;;;;21.06;69.15;100072.47;5092952;28;20942;-53
2022/07/26 03:38:37;;;;;;;0.60;0.30;;;;;;;21.02;69.65;100078.25;5092750;28;21071;-52
2022/07/26 03:41:04;;;;;;;3.03;1.27;;;;;;;20.95;69.43;100080.53;5093185;28;20559;-52
2022/07/26 03:43:30;;;;;;;0.70;0.50;;;;;;;21.01;69.12;100088.19;5092714;28;20445;-52
2022/07/26 03:46:01;;;;;;;1.47;0.87;;;;;;;21.20;68.59;100091.22;5089759;28;20452;-52
2022/07/26 03:48:29;;;;;;;1.20;0.50;;;;;;;20.83;69.90;100090.44;5089581;28;20999;-53
2022/07/26 03:50:56;;;;;;;6.00;0.70;;;;;;;20.63;70.62;100094.59;5092999;28;20448;-53
2022/07/26 03:53:22;;;;;;;0.70;0.57;;;;;;;20.61;70.87;100077.63;5092966;28;20484;-53
2022/07/26 03:58:35;;;;;;;2.00;0.60;;;;;;;20.55;71.05;100094.28;5092476;28;20487;-53
2022/07/26 04:01:02;;;;;;;4.63;0.90;;;;;;;20.81;70.05;100094.19;5092820;28;20761;-53
2022/07/26 04:03:29;;;;;;;0.80;0.50;;;;;;;20.50;71.18;100093.75;5093478;28;20448;-53
2022/07/26 04:05:56;;;;;;;1.00;0.53;;;;;;;20.57;70.75;100092.34;5093790;28;20445;-52
2022/07/26 04:08:23;;;;;;;0.70;0.70;;;;;;;20.41;71.87;100088.97;5092561;28;20471;-53
2022/07/26 04:10:50;;;;;;;0.70;0.40;;;;;;;20.44;71.73;100099.63;5092144;28;20453;-53
2022/07/26 04:13:17;;;;;;;1.10;0.70;;;;;;;20.62;71.17;100100.09;5092673;28;20489;-53
2022/07/26 04:15:44;;;;;;;2.30;0.50;;;;;;;20.38;71.55;100098.19;5091624;28;20455;-51
2022/07/26 04:18:12;;;;;;;0.83;0.60;;;;;;;20.33;71.90;100094.94;5079604;28;20469;-53
2022/07/26 04:20:39;;;;;;;4.93;0.80;;;;;;;20.53;71.37;100103.47;5091006;28;20449;-52
2022/07/26 04:23:06;;;;;;;0.70;0.60;;;;;;;20.62;70.98;100098.28;5079979;28;20445;-52
2022/07/26 04:25:38;;;;;;;1.77;1.00;;;;;;;20.67;70.73;100093.38;5092279;28;20468;-52
2022/07/26 04:28:07;;;;;;;0.63;0.53;;;;;;;20.61;70.81;100099.25;5092050;28;20482;-52
2022/07/26 04:30:33;;;;;;;0.60;0.40;;;;;;;20.84;69.67;100102.97;5091902;28;20453;-53
2022/07/26 04:33:00;;;;;;;0.77;0.43;;;;;;;21.13;68.84;100108.03;5092306;28;20457;-53
2022/07/26 04:35:27;;;;;;;3.97;0.53;;;;;;;20.77;70.34;100103.53;5092126;28;20445;-53
2022/07/26 04:37:54;;;;;;;1.33;0.60;;;;;;;20.85;69.85;100103.81;5092262;28;20455;-53
2022/07/26 04:40:21;;;;;;;2.13;0.80;;;;;;;21.60;67.33;100104.44;5092057;28;20445;-53
2022/07/26 04:42:50;;;;;;;0.60;0.40;;;;;;;21.44;67.87;100107.44;5092284;28;20498;-53
2022/07/26 04:45:17;;;;;;;0.77;0.60;;;;;;;21.21;67.92;100105.59;5091725;28;20787;-53
2022/07/26 04:47:48;;;;;;;1.50;1.13;;;;;;;20.80;69.99;100100.59;5084699;28;20452;-53
2022/07/26 04:50:15;;;;;;;1.40;0.70;;;;;;;21.02;69.71;100107.97;5092227;28;20459;-53
2022/07/26 04:52:42;;;;;;;6.13;0.50;;;;;;;21.85;66.53;100096.13;5092114;28;20445;-53
2022/07/26 04:55:09;;;;;;;0.67;0.50;;;;;;;22.67;63.45;100102.19;5092247;28;20575;-53
2022/07/26 04:57:36;;;;;;;1.43;0.70;;;;;;;23.51;60.67;100110.59;5095868;28;20540;-53
2022/07/26 05:00:08;;;;;;;0.60;0.60;;;;;;;23.61;59.63;100107.00;5095982;28;20465;-52
2022/07/26 05:02:48;;;;;;;2.50;0.70;;;;;;;24.15;58.49;100105.91;5095939;28;20444;-52
2022/07/26 05:05:15;;;;;;;0.60;0.40;;;;;;;24.77;56.47;100115.75;5096225;28;20441;-52
2022/07/26 05:07:44;;;;;;;0.67;0.63;;;;;;;24.64;56.95;100117.00;5096001;28;20449;-52
2022/07/26 05:10:11;;;;;;;1.57;0.50;;;;;;;24.64;56.14;100111.56;5095787;28;20459;-52
2022/07/26 05:12:38;;;;;;;12.60;1.20;;;;;;;24.54;56.46;100108.84;5095463;28;20449;-53
2022/07/26 05:15:06;;;;;;;4.10;0.70;;;;;;;24.75;55.58;100116.91;5095769;28;20495;-53
2022/07/26 05:17:40;;;;;;;0.60;0.40;;;;;;;24.30;56.69;100111.88;5095467;28;20440;-53
2022/07/26 05:20:08;;;;;;;0.73;0.60;;;;;;;24.37;56.38;100113.03;5095647;28;20472;-53
2022/07/26 05:22:35;;;;;;;0.60;0.60;;;;;;;24.67;56.44;100122.16;5091592;28;20454;-53
2022/07/26 05:25:03;;;;;;;10.30;0.70;;;;;;;24.73;56.60;100118.91;5085861;28;20830;-53
2022/07/26 05:27:30;;;;;;;9.77;1.43;;;;;;;24.96;55.70;100114.09;5095556;28;20448;-53
2022/07/26 05:29:57;;;;;;;0.60;0.50;;;;;;;25.06;54.80;100120.44;5095358;28;20529;-53
2022/07/26 05:32:23;;;;;;;10.57;0.63;;;;;;;24.81;55.83;100124.53;5095249;28;20950;-53
2022/07/26 05:34:50;;;;;;;0.60;0.37;;;;;;;24.57;56.78;100118.56;5094927;28;20484;-54
2022/07/26 05:37:16;;;;;;;3.90;0.80;;;;;;;25.32;54.71;100131.63;5095330;28;20444;-53
2022/07/26 05:39:43;;;;;;;10.57;0.83;;;;;;;25.01;56.00;100128.16;5095101;28;20461;-53
2022/07/26 05:42:09;;;;;;;0.60;0.40;;;;;;;24.57;56.26;100122.16;5095003;28;20451;-53
2022/07/26 05:44:36;;;;;;;1.13;0.73;;;;;;;25.35;54.51;100120.47;5095454;28;20452;-53
2022/07/26 05:47:08;;;;;;;1.57;0.53;;;;;;;25.19;54.86;100125.59;5088427;28;20814;-53
2022/07/26 05:49:35;;;;;;;2.40;0.60;;;;;;;25.01;55.36;100120.88;5095330;28;20468;-53
2022/07/26 05:52:07;;;;;;;0.70;0.60;;;;;;;24.90;55.56;100131.81;5095157;28;20445;-54
2022/07/26 05:54:33;;;;;;;0.60;0.40;;;;;;;24.56;56.18;100133.16;5095000;28;20877;-53
2022/07/26 05:57:00;;;;;;;1.27;0.90;;;;;;;24.75;56.41;100139.50;5075040;28;20827;-53
2022/07/26 05:59:27;;;;;;;2.60;1.23;;;;;;;24.64;56.31;100139.63;5074496;28;20476;-53
2022/07/26 06:01:55;;;;;;;4.83;0.83;;;;;;;24.92;56.22;100137.13;5074657;28;20446;-54
2022/07/26 06:04:22;;;;;;;4.77;0.60;;;;;;;25.28;55.20;100135.66;5074225;28;20499;-54
2022/07/26 06:06:53;;;;;;;0.73;0.57;;;;;;;25.33;54.95;100142.38;5074244;28;20866;-54
2022/07/26 06:09:20;;;;;;;0.70;0.40;;;;;;;25.29;55.53;100134.66;5074638;28;20472;-53
2022/07/26 06:11:46;;;;;;;0.90;0.67;;;;;;;25.52;55.00;100141.53;5074616;28;20446;-54
2022/07/26 06:14:13;;;;;;;7.50;0.70;;;;;;;25.11;55.56;100137.22;5074632;28;20493;-53
2022/07/26 06:16:40;;;;;;;0.60;0.40;;;;;;;25.17;55.13;100138.50;5074535;28;21001;-54
2022/07/26 06:19:07;;;;;;;0.77;0.60;;;;;;;25.30;55.61;100145.38;5074602;28;20498;-54
2022/07/26 06:21:33;;;;;;;2.63;0.70;;;;;;;25.16;55.93;100139.50;5091171;28;20445;-53
2022/07/26 06:23:59;;;;;;;0.73;0.47;;;;;;;25.38;55.73;100137.38;5080769;28;20944;-53
2022/07/26 06:26:26;;;;;;;0.67;0.60;;;;;;;25.33;55.41;100136.06;5094714;28;20445;-53
2022/07/26 06:28:52;;;;;;;2.80;0.90;;;;;;;25.69;54.07;100142.72;5094266;28;21008;-53
2022/07/26 06:31:19;;;;;;;1.37;0.50;;;;;;;25.82;53.91;100134.25;5094272;28;20461;-53
2022/07/26 06:33:46;;;;;;;9.87;0.67;;;;;;;25.59;54.08;100139.09;5093628;28;20997;-53
2022/07/26 06:36:12;;;;;;;0.67;0.53;;;;;;;25.24;55.55;100142.38;5094596;28;20453;-53
2022/07/26 06:38:39;;;;;;;0.70;0.40;;;;;;;25.35;55.29;100139.50;5094149;28;20474;-53
2022/07/26 06:41:05;;;;;;;1.43;0.50;;;;;;;25.27;55.52;100155.72;5094414;28;20455;-53
2022/07/26 06:43:32;;;;;;;2.50;0.60;;;;;;;25.63;54.41;100151.41;5094164;28;20481;-53
2022/07/26 06:45:58;;;;;;;12.67;0.57;;;;;;;25.82;54.51;100153.31;5091367;28;20452;-53
2022/07/26 06:48:25;;;;;;;1.10;0.40;;;;;;;25.81;54.00;100151.59;5089800;28;20501;-52
2022/07/26 06:50:52;;;;;;;5.83;0.80;;;;;;;25.14;55.45;100146.94;5093988;28;20476;-53
2022/07/26 06:53:18;;;;;;;1.03;0.80;;;;;;;25.22;55.65;100157.97;5093909;28;20456;-53
2022/07/26 06:55:45;;;;;;;0.77;0.63;;;;;;;25.44;55.05;100156.84;5093635;28;20488;-53
2022/07/26 06:58:11;;;;;;;4.33;0.97;;;;;;;25.32;55.27;100143.38;5093182;28;20476;-53
2022/07/26 07:00:37;;;;;;;0.50;0.40;;;;;;;25.40;55.62;100146.25;5093590;28;20946;-52
2022/07/26 07:03:04;;;;;;;2.60;0.60;;;;;;;25.48;55.76;100142.81;5093555;28;20449;-53
2022/07/26 07:05:31;;;;;;;0.93;0.70;;;;;;;25.34;56.28;100151.41;5093912;28;20441;-53
2022/07/26 07:07:58;;;;;;;2.00;1.07;;;;;;;25.40;55.65;100150.84;5093524;28;20449;-53
2022/07/26 07:10:25;;;;;;;2.87;0.90;;;;;;;26.10;53.45;100151.53;5093585;28;20455;-53
2022/07/26 07:12:51;;;;;;;13.10;0.70;;;;;;;26.29;53.17;100148.75;5093108;28;20938;-52
2022/07/26 07:15:18;;;;;;;0.80;0.70;;;;;;;25.62;54.55;100147.81;5093462;28;20488;-52
2022/07/26 07:17:44;;;;;;;1.23;1.07;;;;;;;25.47;55.17;100151.97;5092201;28;20445;-53
2022/07/26 07:20:11;;;;;;;0.93;0.70;;;;;;;25.62;55.16;100149.69;5093688;28;20449;-52
2022/07/26 07:22:37;;;;;;;1.00;0.73;;;;;;;25.54;54.96;100146.84;5089540;28;20446;-53
2022/07/26 07:25:04;;;;;;;1.90;0.50;;;;;;;25.89;54.09;100141.66;5083910;28;20897;-53
2022/07/26 07:27:31;;;;;;;0.70;0.50;;;;;;;25.66;54.50;100145.69;5092658;28;20933;-53
2022/07/26 07:29:58;;;;;;;11.40;0.90;;;;;;;25.40;55.13;100146.25;5092785;28;20473;-53
2022/07/26 07:32:25;;;;;;;1.20;0.50;;;;;;;25.76;53.04;100141.13;5093284;28;20535;-53
2022/07/26 07:34:53;;;;;;;3.23;0.97;;;;;;;26.06;53.64;100142.81;5092999;28;20492;-53
2022/07/26 07:37:20;;;;;;;3.70;0.50;;;;;;;26.17;53.32;100144.47;5092765;28;21046;-53
2022/07/26 07:39:48;;;;;;;3.03;0.70;;;;;;;25.67;53.39;100141.97;5093043;28;20942;-53
2022/07/26 07:42:18;;;;;;;1.47;0.60;;;;;;;25.89;52.54;100152.56;5092999;28;20472;-53
2022/07/26 07:44:45;;;;;;;1.00;0.70;;;;;;;25.90;53.06;100148.84;5093163;28;20445;-53
2022/07/26 07:47:11;;;;;;;1.50;1.00;;;;;;;26.27;52.25;100143.47;5085990;28;20531;-53
2022/07/26 07:49:38;;;;;;;0.70;0.50;;;;;;;25.86;53.06;100149.28;5092640;28;20479;-53
2022/07/26 07:52:05;;;;;;;9.10;0.70;;;;;;;25.67;53.75;100150.13;5092597;28;20456;-54
2022/07/26 07:54:31;;;;;;;6.00;0.80;;;;;;;25.61;53.54;100142.53;5092614;28;21013;-53
2022/07/26 07:56:57;;;;;;;0.50;0.30;;;;;;;26.01;53.34;100150.56;5092542;28;20449;-53
2022/07/26 07:59:24;;;;;;;0.60;0.50;;;;;;;26.64;51.17;100148.09;5092760;28;20469;-54
2022/07/26 08:01:50;;;;;;;0.57;0.37;;;;;;;26.26;51.81;100149.91;5092498;28;20544;-53
2022/07/26 08:04:17;;;;;;;1.00;0.60;;;;;;;26.11;52.26;100151.41;5092686;28;20445;-55
2022/07/26 08:06:44;;;;;;;0.80;0.60;;;;;;;26.80;52.16;100158.34;5092332;28;20460;-55
2022/07/26 08:09:17;;;;;;;0.67;0.53;;;;;;;27.09;49.83;100150.03;5092411;28;20504;-55
2022/07/26 08:11:44;;;;;;;1.60;1.07;;;;;;;26.46;51.15;100158.94;5092163;28;20452;-55
2022/07/26 08:14:16;;;;;;;1.83;0.60;;;;;;;26.46;51.11;100160.81;5092468;28;20572;-54
2022/07/26 08:16:43;;;;;;;0.70;0.70;;;;;;;27.36;48.49;100149.13;5092287;28;20824;-53
2022/07/26 08:19:10;;;;;;;2.00;0.60;;;;;;;27.36;48.51;100149.13;5092228;28;20497;-55
2022/07/26 08:21:37;;;;;;;0.60;0.50;;;;;;;27.39;48.19;100146.09;5093247;28;20524;-53
2022/07/26 08:24:05;;;;;;;1.63;0.50;;;;;;;26.61;50.14;100153.88;5079592;28;20450;-53
2022/07/26 08:26:31;;;;;;;3.57;0.50;;;;;;;26.46;51.06;100152.63;5092613;28;20452;-54
2022/07/26 08:28:58;;;;;;;1.10;0.50;;;;;;;27.10;49.82;100151.75;5091979;28;20479;-53
2022/07/26 08:31:29;;;;;;;0.80;0.70;;;;;;;26.96;49.30;100154.97;5092252;28;20510;-54
2022/07/26 08:33:56;;;;;;;1.60;0.80;;;;;;;26.03;51.52;100153.97;5092315;28;20532;-54
2022/07/26 08:36:22;;;;;;;0.50;0.33;;;;;;;26.32;51.38;100156.66;5092304;28;20451;-54
2022/07/26 08:38:49;;;;;;;0.70;0.60;;;;;;;26.17;51.33;100161.69;5092436;28;20469;-54
2022/07/26 08:41:19;;;;;;;0.70;0.50;;;;;;;26.41;50.78;100155.78;5092432;28;20888;-55
2022/07/26 08:43:45;;;;;;;0.60;0.50;;;;;;;26.37;50.73;100167.16;5092645;28;20763;-54
2022/07/26 08:46:23;;;;;;;0.67;0.67;;;;;;;26.57;50.24;100168.78;5087156;28;20434;-54
2022/07/26 08:48:54;;;;;;;0.80;0.70;;;;;;;25.88;51.75;100167.19;5092213;28;20573;-54
2022/07/26 08:51:23;;;;;;;8.33;3.10;;;;;;;25.95;52.21;100164.78;5092938;28;20444;-54
2022/07/26 08:53:55;;;;;;;0.70;0.50;;;;;;;26.76;49.99;100163.25;5091591;28;20445;-51
2022/07/26 08:56:30;;;;;;;0.63;0.47;;;;;;;26.21;49.41;100163.16;5089805;28;20482;-52
2022/07/26 08:58:56;;;;;;;0.60;0.40;;;;;;;27.01;49.24;100161.75;5081011;28;20465;-54
2022/07/26 09:01:23;;;;;;;1.43;1.33;;;;;;;26.88;47.94;100165.81;5092286;28;20453;-54
2022/07/26 09:03:49;;;;;;;1.57;1.47;;;;;;;26.94;48.23;100165.19;5092291;28;20453;-54
2022/07/26 09:06:17;;;;;;;0.60;0.53;;;;;;;26.93;47.16;100169.78;5092023;28;20523;-53
2022/07/26 09:08:46;;;;;;;0.83;0.50;;;;;;;26.70;46.86;100171.19;5092111;28;20469;-54
2022/07/26 09:11:31;;;;;;;0.83;0.47;;;;;;;26.43;47.87;100183.75;5092085;28;20452;-53
2022/07/26 09:14:01;;;;;;;0.93;0.50;;;;;;;26.42;47.48;100186.63;5092181;28;20441;-53
2022/07/26 09:16:29;;;;;;;0.60;0.47;;;;;;;26.61;48.46;100174.81;5091535;28;20572;-53
2022/07/26 09:19:20;;;;;;;1.00;0.70;;;;;;;27.27;47.22;100164.56;5091953;28;20465;-53
2022/07/26 09:21:47;;;;;;;0.60;0.40;;;;;;;27.75;46.99;100171.56;5092262;28;20486;-54
2022/07/26 09:24:29;;;;;;;4.73;0.67;;;;;;;28.03;45.10;100180.50;5078664;28;20531;-55
2022/07/26 09:26:57;;;;;;;0.70;0.53;;;;;;;27.88;46.30;100176.63;5092726;28;20441;-54
2022/07/26 09:29:24;;;;;;;1.07;0.40;;;;;;;27.65;45.97;100181.72;5092024;28;20821;-54
2022/07/26 09:31:50;;;;;;;1.80;0.47;;;;;;;27.98;45.49;100183.72;5091566;28;20464;-54
2022/07/26 09:34:24;;;;;;;11.83;1.10;;;;;;;27.37;46.72;100184.47;5091517;28;20449;-54
2022/07/26 09:36:53;;;;;;;0.87;0.50;;;;;;;27.64;46.67;100177.25;5091523;28;20446;-55
2022/07/26 09:39:20;;;;;;;0.63;0.43;;;;;;;27.71;46.26;100179.22;5091948;28;20851;-54
2022/07/26 09:42:05;;;;;;;1.00;0.60;;;;;;;28.02;45.84;100187.00;5094079;28;20444;-54
2022/07/26 09:44:53;;;;;;;0.70;0.40;;;;;;;27.52;46.27;100186.66;5095273;28;20444;-53
2022/07/26 09:47:20;;;;;;;0.60;0.47;;;;;;;26.90;46.74;100188.31;5088254;28;20819;-54
2022/07/26 09:49:46;;;;;;;0.80;0.47;;;;;;;27.14;47.01;100189.53;5095118;28;20837;-55
2022/07/26 09:52:14;;;;;;;0.60;0.40;;;;;;;28.17;45.75;100187.28;5095419;28;20449;-54
2022/07/26 09:54:40;;;;;;;0.67;0.50;;;;;;;28.32;45.59;100180.25;5095031;28;20492;-52
2022/07/26 09:57:07;;;;;;;0.60;0.37;;;;;;;27.91;45.27;100187.25;5095119;28;20456;-55
2022/07/26 09:59:33;;;;;;;10.33;0.87;;;;;;;28.25;43.07;100190.09;5093772;28;20454;-56
2022/07/26 10:02:00;;;;;;;0.77;0.50;;;;;;;28.41;42.34;100186.63;5096187;28;20953;-55
2022/07/26 10:04:27;;;;;;;0.70;0.50;;;;;;;29.25;42.64;100185.88;5095556;28;20449;-56
2022/07/26 10:06:56;;;;;;;0.60;0.50;;;;;;;28.89;42.30;100178.72;5095147;28;20448;-54
2022/07/26 10:09:24;;;;;;;2.93;0.50;;;;;;;29.19;42.35;100196.47;5095103;28;20471;-54
2022/07/26 10:11:58;;;;;;;0.70;0.40;;;;;;;28.39;43.63;100178.59;5094927;28;20536;-54
2022/07/26 10:14:45;;;;;;;0.60;0.50;;;;;;;28.35;43.59;100179.91;5094520;28;20449;-53
2022/07/26 10:17:27;;;;;;;2.73;0.83;;;;;;;28.79;42.40;100186.19;5094311;28;20536;-54
2022/07/26 10:20:01;;;;;;;0.60;0.40;;;;;;;28.78;42.79;100195.41;5094674;28;20465;-54
2022/07/26 10:22:32;;;;;;;0.73;0.50;;;;;;;28.66;42.22;100191.22;5091901;28;20516;-53
2022/07/26 10:25:17;;;;;;;14.20;0.90;;;;;;;28.42;41.36;100197.41;5084362;28;20445;-55
2022/07/26 10:27:48;;;;;;;10.93;1.67;;;;;;;28.20;42.01;100190.53;5094351;28;20449;-53
2022/07/26 10:30:15;;;;;;;0.60;0.40;;;;;;;28.33;42.66;100193.75;5094700;28;20457;-54
2022/07/26 10:33:02;;;;;;;0.60;0.40;;;;;;;28.32;43.16;100191.19;5094298;28;20472;-54
2022/07/26 10:35:35;;;;;;;0.70;0.40;;;;;;;28.55;42.68;100191.50;5093218;28;20530;-55
2022/07/26 10:38:06;;;;;;;2.10;0.60;;;;;;;29.10;41.23;100194.72;5094708;28;20437;-54
2022/07/26 10:40:36;;;;;;;0.97;0.53;;;;;;;29.31;39.54;100190.66;5094472;28;20922;-54
2022/07/26 10:43:12;;;;;;;6.50;0.97;;;;;;;28.98;39.72;100195.19;5094792;28;20441;-54
2022/07/26 10:46:14;;;;;;;1.10;0.63;;;;;;;28.90;39.87;100196.84;5079749;28;20437;-55
2022/07/26 10:49:05;;;;;;;1.80;0.60;;;;;;;29.33;38.64;100191.34;5091572;28;20475;-55
2022/07/26 10:51:35;;;;;;;0.60;0.40;;;;;;;29.63;39.00;100189.91;5093780;28;20532;-55
2022/07/26 10:54:08;;;;;;;0.50;0.30;;;;;;;29.04;39.71;100194.50;5093662;28;20556;-54
2022/07/26 10:56:36;;;;;;;1.00;0.70;;;;;;;29.20;40.51;100189.97;5093978;28;20480;-55
2022/07/26 10:59:04;;;;;;;2.33;0.70;;;;;;;29.25;39.79;100185.88;5093913;28;20516;-55
2022/07/26 11:01:40;;;;;;;0.60;0.47;;;;;;;29.38;39.62;100186.25;5093445;28;20965;-54
2022/07/26 11:04:20;;;;;;;0.70;0.50;;;;;;;29.68;39.32;100191.13;5093812;28;20810;-55
2022/07/26 11:06:47;;;;;;;0.60;0.40;;;;;;;29.35;40.14;100190.19;5093570;28;20451;-54
2022/07/26 11:09:13;;;;;;;0.60;0.50;;;;;;;28.80;41.02;100178.81;5093778;28;20464;-56
2022/07/26 11:11:40;;;;;;;0.80;0.50;;;;;;;28.78;41.53;100179.00;5093268;28;20453;-55
2022/07/26 11:14:14;;;;;;;1.03;0.50;;;;;;;28.61;41.37;100180.75;5093237;28;20495;-55
2022/07/26 11:16:45;;;;;;;3.40;0.60;;;;;;;28.64;40.85;100176.84;5092373;28;20466;-55
2022/07/26 11:19:16;;;;;;;0.67;0.50;;;;;;;29.38;39.44;100178.03;5092832;28;20518;-55
2022/07/26 11:21:44;;;;;;;0.60;0.40;;;;;;;29.20;39.76;100179.00;5087538;28;20536;-55
2022/07/26 11:24:11;;;;;;;0.60;0.40;;;;;;;29.64;38.19;100165.09;5077540;28;20479;-55
2022/07/26 11:26:43;;;;;;;1.77;0.60;;;;;;;29.24;38.58;100168.56;5093779;28;20440;-56
2022/07/26 11:29:10;;;;;;;1.10;0.53;;;;;;;29.23;39.65;100174.22;5093184;28;20837;-55
2022/07/26 11:31:44;;;;;;;0.80;0.70;;;;;;;29.12;39.46;100168.03;5093147;28;20460;-56
2022/07/26 11:34:26;;;;;;;3.90;0.60;;;;;;;29.54;39.48;100164.38;5093424;28;20854;-55
2022/07/26 11:36:55;;;;;;;0.87;0.57;;;;;;;29.62;39.96;100161.66;5092958;28;20489;-55